NBB weather

Barranco Minas Airport
Barranco Minas, Cundinamarca Department, Colombia

Public forecast

Using degrees Celsius for public forecast. Weather courtesy of forecast.io.

METAR (pilot weather report)

Report is more than 6 hours old.

Closest report is Jorge E. Gonzalez Torres Airport, 178.7 nm (330.9 km) WSW. Retrieved 2018/12/23 20:00 UTC (2 months ago):

SKSJ 232000Z /////KT 9999 SCT020 XX/XX A2979

TAF (pilot weather forecast)

Forecast is more than 12 hours old.

Closest forecast is El Dorado International Airport, 270.4 nm (500.8 km) WNW. Retrieved 2019/02/14 06:12 UTC (2 days ago):

TAF SKBO 140500Z 1406/1506 VRB02KT 9999 FEW020 SCT070 PROB40 TEMPO 1410/1412 6000 DZ MIFG SCT015 BECMG 1414/1416 26010KT TEMPO 1419/1422 7000 VCSH SCT015TCU BECMG 1502/1504 VRB02KT TX22/1419Z TN07/1411Z